createdAt,value
2023-05-16T00:00:11.329Z,13.65
2023-05-16T00:02:40.693Z,13.75
2023-05-16T00:05:11.501Z,12.70
2023-05-16T00:07:40.468Z,14.90
2023-05-16T00:10:10.308Z,12.63
2023-05-16T00:12:40.539Z,13.32
2023-05-16T00:15:16.227Z,12.82
2023-05-16T00:20:18.046Z,12.63
2023-05-16T00:22:47.106Z,13.63
2023-05-16T00:25:16.097Z,12.45
2023-05-16T00:27:45.135Z,11.55
2023-05-16T00:30:16.230Z,11.25
2023-05-16T00:32:45.496Z,12.45
2023-05-16T00:35:14.527Z,13.00
2023-05-16T00:37:43.582Z,12.75
2023-05-16T00:40:13.436Z,13.27
2023-05-16T00:42:42.421Z,12.70
2023-05-16T00:45:12.411Z,11.18
2023-05-16T00:47:43.106Z,12.35
2023-05-16T00:50:12.743Z,12.77
2023-05-16T00:52:41.989Z,11.90
2023-05-16T00:55:11.779Z,11.10
2023-05-16T00:57:41.483Z,11.20
2023-05-16T01:00:11.546Z,11.88
2023-05-16T01:02:42.463Z,9.95
2023-05-16T01:05:12.496Z,11.85
2023-05-16T01:07:41.474Z,11.23
2023-05-16T01:10:11.441Z,11.45
2023-05-16T01:12:50.144Z,11.65
2023-05-16T01:15:27.429Z,11.48
2023-05-16T01:18:04.671Z,10.88
2023-05-16T01:20:42.701Z,10.50
2023-05-16T01:23:42.213Z,11.50
2023-05-16T01:26:31.317Z,11.20
2023-05-16T01:29:01.026Z,12.18
2023-05-16T01:31:30.062Z,11.43
2023-05-16T01:33:59.076Z,11.35
2023-05-16T01:36:37.271Z,10.68
2023-05-16T01:39:12.839Z,10.90
2023-05-16T01:41:53.287Z,11.70
2023-05-16T01:44:30.358Z,11.48
2023-05-16T01:47:03.802Z,11.80
2023-05-16T01:49:37.697Z,12.10
2023-05-16T01:52:12.551Z,11.23
2023-05-16T01:54:45.709Z,11.70
2023-05-16T01:57:18.674Z,11.02
2023-05-16T01:59:48.152Z,11.73
2023-05-16T02:02:20.156Z,11.10
2023-05-16T02:04:49.211Z,11.65
2023-05-16T02:07:18.336Z,10.77
2023-05-16T02:09:47.369Z,10.02
2023-05-16T02:12:18.968Z,11.52
2023-05-16T02:14:47.987Z,10.73
2023-05-16T02:17:17.070Z,11.40
2023-05-16T02:19:46.192Z,10.65
2023-05-16T02:22:15.210Z,9.75
2023-05-16T02:24:44.194Z,10.55
2023-05-16T02:27:13.499Z,10.63
2023-05-16T02:29:44.121Z,10.30
2023-05-16T02:32:13.197Z,11.18
2023-05-16T02:34:42.445Z,10.63
2023-05-16T02:37:13.187Z,10.27
2023-05-16T02:39:42.575Z,11.13
2023-05-16T02:42:11.772Z,10.68
2023-05-16T02:44:42.480Z,10.43
2023-05-16T02:47:11.707Z,10.13
2023-05-16T02:49:40.663Z,10.00
2023-05-16T02:52:09.782Z,10.52
2023-05-16T02:54:38.848Z,11.95
2023-05-16T02:57:07.925Z,11.40
2023-05-16T02:59:37.223Z,10.65
2023-05-16T03:02:08.251Z,10.68
2023-05-16T03:04:37.848Z,11.02
2023-05-16T03:07:06.865Z,11.63
2023-05-16T03:09:35.912Z,10.82
2023-05-16T03:12:06.942Z,9.85
2023-05-16T03:14:36.632Z,10.50
2023-05-16T03:17:07.365Z,11.40
2023-05-16T03:19:36.369Z,11.05
2023-05-16T03:22:05.648Z,11.07
2023-05-16T03:24:34.747Z,11.13
2023-05-16T03:27:05.433Z,10.93
2023-05-16T03:29:34.659Z,11.32
2023-05-16T03:32:03.780Z,10.98
2023-05-16T03:34:34.716Z,10.73
2023-05-16T03:37:03.706Z,10.60
2023-05-16T03:39:32.731Z,12.10
2023-05-16T03:42:01.863Z,10.65
2023-05-16T03:44:30.905Z,11.32
2023-05-16T03:46:59.910Z,10.05
2023-05-16T03:49:29.603Z,10.70
2023-05-16T03:52:00.339Z,10.60
2023-05-16T03:54:29.329Z,10.55
2023-05-16T03:56:58.316Z,9.82
2023-05-16T03:59:27.290Z,9.52
2023-05-16T04:01:56.475Z,10.15
2023-05-16T04:04:25.518Z,10.73
2023-05-16T04:06:54.533Z,9.68
2023-05-16T04:09:25.187Z,10.52
2023-05-16T04:11:54.244Z,9.98
2023-05-16T04:14:23.277Z,10.00
2023-05-16T04:16:52.674Z,9.88
2023-05-16T04:19:21.853Z,10.52
2023-05-16T04:21:51.579Z,10.07
2023-05-16T04:24:20.630Z,9.95
2023-05-16T04:26:52.094Z,10.20
2023-05-16T04:29:22.228Z,9.80
2023-05-16T04:31:51.286Z,9.40
2023-05-16T04:34:20.364Z,9.88
2023-05-16T04:36:49.572Z,10.32
2023-05-16T04:39:19.117Z,9.75
2023-05-16T04:41:55.919Z,9.88
2023-05-16T04:44:24.964Z,9.68
2023-05-16T04:46:56.998Z,9.65
2023-05-16T04:49:26.147Z,9.15
2023-05-16T04:51:55.212Z,9.32
2023-05-16T04:54:24.371Z,9.77
2023-05-16T04:56:53.399Z,9.88
2023-05-16T04:59:24.237Z,10.68
2023-05-16T05:01:53.313Z,9.18
2023-05-16T05:04:23.540Z,9.57
2023-05-16T05:06:52.715Z,10.10
2023-05-16T05:09:21.840Z,10.45
2023-05-16T05:11:50.903Z,10.65
2023-05-16T05:14:19.934Z,9.93
2023-05-16T05:16:50.558Z,9.95
2023-05-16T05:19:19.795Z,9.77
2023-05-16T05:21:48.888Z,9.82
2023-05-16T05:24:17.872Z,10.23
2023-05-16T05:26:46.861Z,10.43
2023-05-16T05:29:15.798Z,10.60
2023-05-16T05:31:44.825Z,11.30
2023-05-16T05:34:15.662Z,10.27
2023-05-16T05:36:45.409Z,10.30
2023-05-16T05:39:14.445Z,11.15
2023-05-16T05:41:44.113Z,10.63
2023-05-16T05:44:13.417Z,10.38
2023-05-16T05:46:42.636Z,10.48
2023-05-16T05:49:11.742Z,10.10
2023-05-16T05:51:42.571Z,10.38
2023-05-16T05:54:12.194Z,11.23
2023-05-16T05:56:41.219Z,10.10
2023-05-16T05:59:10.342Z,10.52
2023-05-16T06:01:40.109Z,11.02
2023-05-16T06:04:09.111Z,10.40
2023-05-16T06:06:38.529Z,10.63
2023-05-16T06:09:09.201Z,10.00
2023-05-16T06:11:38.498Z,10.32
2023-05-16T06:14:07.494Z,10.95
2023-05-16T06:16:36.656Z,11.10
2023-05-16T06:19:06.282Z,9.85
2023-05-16T06:21:36.176Z,10.55
2023-05-16T06:24:05.369Z,10.65
2023-05-16T06:26:36.840Z,10.45
2023-05-16T06:29:05.780Z,11.60
2023-05-16T06:31:34.781Z,11.45
2023-05-16T06:34:03.803Z,11.40
2023-05-16T06:36:32.814Z,12.40
2023-05-16T06:39:01.780Z,12.77
2023-05-16T06:41:30.879Z,12.20
2023-05-16T06:44:01.544Z,12.43
2023-05-16T06:46:30.661Z,11.77
2023-05-16T06:49:00.000Z,11.80
2023-05-16T06:51:29.193Z,12.18
2023-05-16T06:53:58.382Z,11.88
2023-05-16T06:56:27.794Z,11.88
2023-05-16T06:58:57.241Z,12.45
2023-05-16T07:01:28.013Z,12.48
2023-05-16T07:03:57.245Z,11.60
2023-05-16T07:06:26.403Z,11.52
2023-05-16T07:08:55.448Z,11.98
2023-05-16T07:11:24.475Z,12.73
2023-05-16T07:13:53.513Z,13.32
2023-05-16T07:16:23.160Z,13.18
2023-05-16T07:18:53.916Z,13.07
2023-05-16T07:21:23.001Z,14.23
2023-05-16T07:23:52.021Z,13.45
2023-05-16T07:26:24.176Z,13.73
2023-05-16T07:28:53.327Z,13.75
2023-05-16T07:31:22.695Z,13.85
2023-05-16T07:33:53.493Z,13.02
2023-05-16T07:36:22.603Z,13.27
2023-05-16T07:38:51.814Z,13.00
2023-05-16T07:41:20.883Z,12.95
2023-05-16T07:43:49.980Z,14.68
2023-05-16T07:46:21.162Z,12.60
2023-05-16T07:48:50.368Z,13.13
2023-05-16T07:51:24.181Z,13.32
2023-05-16T07:53:53.515Z,13.32
2023-05-16T07:56:22.775Z,14.15
2023-05-16T07:58:52.406Z,13.55
2023-05-16T08:01:21.608Z,13.35
2023-05-16T08:03:50.695Z,13.73
2023-05-16T08:06:21.440Z,14.10
2023-05-16T08:08:50.510Z,14.32
2023-05-16T08:11:20.348Z,13.73
2023-05-16T08:13:49.450Z,13.07
2023-05-16T08:16:18.792Z,13.30
2023-05-16T08:18:47.921Z,13.32
2023-05-16T08:21:17.741Z,14.75
2023-05-16T08:23:48.386Z,14.35
2023-05-16T08:26:19.591Z,14.13
2023-05-16T08:28:48.754Z,14.77
2023-05-16T08:31:17.917Z,14.48
2023-05-16T08:33:47.192Z,14.82
2023-05-16T08:36:16.943Z,13.98
2023-05-16T08:38:47.632Z,13.70
2023-05-16T08:41:16.753Z,14.43
2023-05-16T08:43:45.911Z,14.07
2023-05-16T08:46:15.160Z,14.50
2023-05-16T08:48:47.535Z,13.68
2023-05-16T08:51:19.946Z,13.93
2023-05-16T08:53:55.751Z,14.25
2023-05-16T08:56:25.900Z,15.13
2023-05-16T08:58:56.151Z,13.05
2023-05-16T09:01:25.394Z,13.98
2023-05-16T09:03:55.013Z,14.43
2023-05-16T09:06:24.198Z,13.68
2023-05-16T09:08:55.631Z,14.82
2023-05-16T09:11:24.896Z,15.00
2023-05-16T09:13:53.958Z,14.80
2023-05-16T09:16:23.432Z,14.60
2023-05-16T09:18:57.832Z,14.43
2023-05-16T09:21:29.793Z,13.32
2023-05-16T09:24:05.623Z,15.35
2023-05-16T09:26:36.014Z,14.45
2023-05-16T09:29:13.315Z,14.68
2023-05-16T09:31:42.931Z,14.48
2023-05-16T09:34:13.646Z,15.90
2023-05-16T09:36:44.023Z,14.55
2023-05-16T09:39:17.455Z,15.88
2023-05-16T09:41:46.915Z,15.57
2023-05-16T09:44:15.946Z,14.75
2023-05-16T09:46:45.146Z,14.65
2023-05-16T09:49:15.495Z,14.20
2023-05-16T09:51:44.816Z,15.00
2023-05-16T09:54:16.552Z,15.52
2023-05-16T09:56:52.574Z,15.23
2023-05-16T09:59:26.987Z,15.63
2023-05-16T10:01:58.687Z,15.57
2023-05-16T10:04:28.267Z,15.70
2023-05-16T10:06:58.419Z,16.33
2023-05-16T10:09:30.054Z,15.20
2023-05-16T10:11:59.498Z,15.75
2023-05-16T10:14:28.592Z,15.75
2023-05-16T10:16:59.100Z,18.35
2023-05-16T10:19:28.946Z,17.65
2023-05-16T10:22:01.820Z,17.27
2023-05-16T10:24:41.172Z,18.67
2023-05-16T10:27:16.445Z,19.88
2023-05-16T10:32:24.766Z,18.48
2023-05-16T10:34:55.918Z,18.45
2023-05-16T10:37:25.876Z,19.80
2023-05-16T10:39:56.810Z,19.38
2023-05-16T10:42:25.857Z,20.05
2023-05-16T10:45:05.629Z,18.75
2023-05-16T10:47:35.776Z,19.73
2023-05-16T10:50:05.185Z,19.95
2023-05-16T10:52:38.120Z,20.65
2023-05-16T10:55:09.424Z,20.55
2023-05-16T10:57:39.217Z,20.23
2023-05-16T11:00:11.192Z,20.70
2023-05-16T11:02:43.426Z,19.65
2023-05-16T11:05:19.195Z,20.08
2023-05-16T11:08:05.962Z,19.30
2023-05-16T11:10:36.645Z,20.02
2023-05-16T11:13:09.954Z,19.52
2023-05-16T11:15:39.079Z,19.98
2023-05-16T11:18:10.056Z,19.80
2023-05-16T11:20:40.384Z,19.17
2023-05-16T11:23:26.441Z,19.20
2023-05-16T11:25:59.459Z,18.95
2023-05-16T11:28:28.998Z,20.45
2023-05-16T11:31:00.654Z,20.20
2023-05-16T11:33:35.493Z,18.58
2023-05-16T11:36:16.011Z,18.65
2023-05-16T11:38:45.787Z,19.60
2023-05-16T11:41:18.538Z,19.70
2023-05-16T11:43:47.661Z,20.98
2023-05-16T11:46:17.797Z,20.38
2023-05-16T11:48:48.163Z,19.88
2023-05-16T11:51:21.152Z,21.15
2023-05-16T11:53:51.066Z,20.45
2023-05-16T11:56:25.643Z,21.00
2023-05-16T11:58:54.911Z,20.83
2023-05-16T12:01:24.145Z,20.98
2023-05-16T12:03:59.738Z,19.55
2023-05-16T12:06:30.233Z,19.63
2023-05-16T12:08:59.253Z,21.08
2023-05-16T12:11:29.957Z,20.88
2023-05-16T12:13:59.173Z,20.70
2023-05-16T12:16:28.370Z,21.05
2023-05-16T12:18:57.638Z,21.35
2023-05-16T12:21:27.450Z,20.73
2023-05-16T12:24:00.674Z,21.23
2023-05-16T12:26:32.961Z,20.83
2023-05-16T12:29:04.344Z,21.05
2023-05-16T12:31:37.823Z,20.27
2023-05-16T12:34:07.204Z,21.75
2023-05-16T12:36:36.504Z,20.80
2023-05-16T12:39:09.400Z,21.60
2023-05-16T12:41:45.480Z,19.65
2023-05-16T12:44:17.918Z,21.05
2023-05-16T12:46:49.214Z,19.80
2023-05-16T12:49:22.312Z,20.23
2023-05-16T12:51:52.484Z,21.08
2023-05-16T12:54:23.788Z,20.90
2023-05-16T12:56:54.577Z,19.83
2023-05-16T12:59:23.640Z,21.30
2023-05-16T13:01:52.894Z,20.77
2023-05-16T13:04:22.297Z,20.60
2023-05-16T13:09:24.239Z,20.67
2023-05-16T13:11:55.142Z,20.10
2023-05-16T13:14:24.294Z,21.90
2023-05-16T13:16:53.461Z,19.48
2023-05-16T13:19:24.093Z,20.10
2023-05-16T13:21:53.481Z,20.02
2023-05-16T13:24:22.541Z,20.08
2023-05-16T13:26:51.653Z,20.48
2023-05-16T13:29:22.322Z,21.65
2023-05-16T13:31:51.697Z,20.88
2023-05-16T13:34:20.756Z,20.23
2023-05-16T13:36:54.494Z,20.73
2023-05-16T13:39:24.642Z,21.20
2023-05-16T13:41:53.662Z,20.45
2023-05-16T13:44:24.464Z,19.65
2023-05-16T13:46:53.638Z,20.67
2023-05-16T13:49:23.115Z,19.65
2023-05-16T13:51:53.134Z,18.77
2023-05-16T13:54:24.925Z,20.17
2023-05-16T13:56:53.949Z,21.13
2023-05-16T13:59:39.570Z,21.40
2023-05-16T14:02:13.753Z,20.45
2023-05-16T14:04:42.815Z,20.85
2023-05-16T14:07:11.964Z,20.30
2023-05-16T14:09:41.396Z,21.02
2023-05-16T14:12:10.850Z,22.35
2023-05-16T14:14:43.594Z,20.60
2023-05-16T14:17:12.742Z,21.27
2023-05-16T14:19:41.836Z,19.73
2023-05-16T14:22:10.837Z,20.45
2023-05-16T14:24:39.867Z,20.33
2023-05-16T14:27:08.931Z,20.83
2023-05-16T14:29:38.008Z,20.17
2023-05-16T14:32:10.031Z,20.63
2023-05-16T14:34:39.127Z,21.17
2023-05-16T14:37:08.252Z,20.17
2023-05-16T14:39:37.637Z,21.05
2023-05-16T14:42:08.691Z,20.58
2023-05-16T14:44:38.010Z,21.00
2023-05-16T14:47:09.037Z,20.27
2023-05-16T14:49:38.063Z,22.85
2023-05-16T14:52:07.737Z,19.92
2023-05-16T14:54:37.704Z,22.55
2023-05-16T14:57:07.853Z,28.65
2023-05-16T14:59:37.334Z,18.75
2023-05-16T15:02:08.378Z,19.63
2023-05-16T15:04:37.637Z,19.60
2023-05-16T15:07:06.957Z,20.38
2023-05-16T15:09:36.132Z,20.55
2023-05-16T15:12:05.902Z,19.20
2023-05-16T15:14:35.140Z,20.50
2023-05-16T15:17:07.316Z,21.63
2023-05-16T15:19:39.524Z,22.83
2023-05-16T15:22:09.682Z,21.67
2023-05-16T15:24:38.891Z,21.50
2023-05-16T15:27:08.323Z,22.52
2023-05-16T15:29:37.564Z,21.23
2023-05-16T15:32:07.472Z,21.73
2023-05-16T15:34:39.352Z,21.33
2023-05-16T15:37:08.451Z,23.33
2023-05-16T15:39:37.576Z,22.58
2023-05-16T15:42:11.190Z,22.80
2023-05-16T15:44:40.821Z,24.08
2023-05-16T15:47:11.117Z,24.73
2023-05-16T15:49:42.378Z,24.90
2023-05-16T15:52:11.619Z,25.08
2023-05-16T15:54:41.811Z,24.60
2023-05-16T15:57:10.847Z,22.55
2023-05-16T15:59:39.945Z,25.83
2023-05-16T16:02:09.044Z,24.58
2023-05-16T16:04:38.058Z,23.98
2023-05-16T16:07:08.884Z,25.95
2023-05-16T16:09:37.928Z,23.73
2023-05-16T16:12:07.521Z,24.40
2023-05-16T16:14:36.681Z,22.90
2023-05-16T16:17:06.352Z,23.77
2023-05-16T16:19:35.878Z,22.58
2023-05-16T16:22:05.694Z,23.60
2023-05-16T16:24:36.635Z,24.23
2023-05-16T16:27:06.091Z,23.90
2023-05-16T16:29:35.111Z,22.08
2023-05-16T16:32:04.114Z,22.80
2023-05-16T16:34:33.232Z,21.20
2023-05-16T16:37:03.006Z,21.63
2023-05-16T16:39:33.216Z,25.02
2023-05-16T16:42:04.709Z,22.15
2023-05-16T16:44:33.754Z,25.10
2023-05-16T16:47:03.177Z,22.75
2023-05-16T16:49:32.518Z,22.58
2023-05-16T16:52:02.139Z,23.50
2023-05-16T16:54:31.196Z,24.17
2023-05-16T16:57:00.295Z,24.17
2023-05-16T16:59:31.007Z,25.80
2023-05-16T17:02:01.083Z,24.92
2023-05-16T17:04:30.386Z,24.83
2023-05-16T17:06:59.407Z,24.15
2023-05-16T17:09:28.580Z,25.95
2023-05-16T17:11:57.614Z,26.60
2023-05-16T17:14:26.687Z,27.42
2023-05-16T17:16:57.606Z,26.45
2023-05-16T17:19:26.684Z,25.73
2023-05-16T17:21:55.779Z,25.38
2023-05-16T17:24:25.241Z,24.27
2023-05-16T17:26:54.645Z,25.33
2023-05-16T17:29:24.804Z,25.83
2023-05-16T17:31:54.294Z,27.25
2023-05-16T17:34:25.271Z,25.63
2023-05-16T17:36:54.304Z,25.13
2023-05-16T17:39:23.446Z,24.55
2023-05-16T17:41:55.136Z,26.85
2023-05-16T17:44:24.232Z,27.25
2023-05-16T17:46:53.289Z,25.08
2023-05-16T17:49:24.359Z,25.85
2023-05-16T17:51:55.113Z,23.95
2023-05-16T17:54:24.993Z,26.70
2023-05-16T17:56:54.550Z,25.75
2023-05-16T17:59:23.558Z,25.63
2023-05-16T18:01:52.813Z,25.60
2023-05-16T18:04:24.668Z,24.48
2023-05-16T18:06:53.769Z,24.73
2023-05-16T18:09:22.887Z,22.55
2023-05-16T18:11:52.368Z,25.23
2023-05-16T18:14:21.712Z,26.40
2023-05-16T18:16:50.801Z,26.45
2023-05-16T18:19:20.017Z,23.33
2023-05-16T18:21:50.837Z,24.67
2023-05-16T18:24:19.882Z,24.02
2023-05-16T18:26:50.382Z,22.55
2023-05-16T18:29:19.479Z,21.70
2023-05-16T18:31:48.522Z,24.77
2023-05-16T18:34:17.980Z,24.10
2023-05-16T18:36:47.052Z,24.55
2023-05-16T18:39:21.282Z,23.30
2023-05-16T18:41:50.454Z,23.65
2023-05-16T18:44:19.772Z,21.92
2023-05-16T18:46:48.913Z,23.52
2023-05-16T18:49:18.177Z,24.90
2023-05-16T18:51:47.346Z,26.30
2023-05-16T18:54:16.547Z,25.40
2023-05-16T18:56:47.353Z,25.05
2023-05-16T18:59:16.419Z,22.25
2023-05-16T19:01:45.944Z,25.30
2023-05-16T19:04:15.027Z,24.05
2023-05-16T19:06:44.171Z,21.20
2023-05-16T19:09:13.368Z,23.55
2023-05-16T19:11:42.540Z,23.85
2023-05-16T19:14:13.361Z,22.42
2023-05-16T19:16:42.471Z,21.25
2023-05-16T19:19:11.613Z,23.58
2023-05-16T19:21:40.935Z,22.02
2023-05-16T19:24:11.310Z,21.63
2023-05-16T19:26:40.871Z,18.95
2023-05-16T19:29:12.002Z,18.50
2023-05-16T19:31:41.320Z,19.80
2023-05-16T19:34:10.430Z,20.70
2023-05-16T19:36:39.548Z,20.33
2023-05-16T19:39:08.655Z,19.77
2023-05-16T19:41:37.919Z,19.05
2023-05-16T19:44:07.166Z,18.27
2023-05-16T19:46:38.433Z,19.40
2023-05-16T19:49:07.772Z,20.30
2023-05-16T19:51:41.977Z,18.63
2023-05-16T19:54:11.592Z,17.23
2023-05-16T19:56:40.648Z,18.95
2023-05-16T19:59:09.793Z,18.73
2023-05-16T20:04:10.625Z,16.92
2023-05-16T20:06:39.937Z,17.92
2023-05-16T20:09:09.265Z,16.20
2023-05-16T20:11:38.693Z,16.73
2023-05-16T20:14:07.897Z,14.25
2023-05-16T20:16:36.929Z,15.60
2023-05-16T20:19:08.107Z,17.23
2023-05-16T20:21:37.172Z,17.85
2023-05-16T20:24:06.881Z,17.38
2023-05-16T20:26:35.908Z,16.75
2023-05-16T20:29:06.021Z,16.10
2023-05-16T20:31:35.101Z,14.15
2023-05-16T20:34:04.426Z,14.98
2023-05-16T20:36:35.486Z,15.38
2023-05-16T20:39:05.143Z,18.17
2023-05-16T20:41:34.265Z,15.75
2023-05-16T20:44:03.317Z,14.98
2023-05-16T20:46:32.532Z,17.55
2023-05-16T20:49:01.675Z,17.13
2023-05-16T20:51:30.892Z,15.77
2023-05-16T20:54:01.634Z,17.70
2023-05-16T20:56:30.766Z,16.17
2023-05-16T20:59:00.550Z,16.23
2023-05-16T21:01:32.156Z,17.45
2023-05-16T21:04:01.465Z,14.82
2023-05-16T21:06:30.557Z,15.00
2023-05-16T21:09:01.180Z,15.10
2023-05-16T21:11:32.949Z,13.90
2023-05-16T21:14:02.213Z,13.90
2023-05-16T21:16:32.018Z,13.68
2023-05-16T21:19:05.303Z,15.70
2023-05-16T21:21:34.548Z,15.30
2023-05-16T21:24:06.304Z,13.77
2023-05-16T21:26:35.300Z,13.95
2023-05-16T21:29:04.583Z,14.48
2023-05-16T21:31:33.719Z,12.30
2023-05-16T21:34:02.891Z,12.27
2023-05-16T21:36:32.149Z,14.20
2023-05-16T21:39:01.486Z,13.25
2023-05-16T21:41:32.152Z,11.95
2023-05-16T21:44:01.216Z,14.60
2023-05-16T21:46:30.322Z,12.95
2023-05-16T21:48:59.408Z,11.10
2023-05-16T21:51:28.580Z,11.85
2023-05-16T21:53:57.607Z,11.73
2023-05-16T21:56:27.018Z,10.32
2023-05-16T21:58:58.793Z,9.75
2023-05-16T22:01:29.508Z,9.57
2023-05-16T22:03:58.893Z,9.88
2023-05-16T22:06:28.146Z,9.45
2023-05-16T22:08:57.619Z,9.82
2023-05-16T22:11:27.157Z,10.40
2023-05-16T22:13:57.848Z,11.00
2023-05-16T22:16:27.036Z,12.48
2023-05-16T22:18:56.412Z,11.70
2023-05-16T22:21:25.537Z,11.20
2023-05-16T22:23:54.638Z,9.77
2023-05-16T22:26:23.865Z,8.43
2023-05-16T22:28:52.882Z,7.68
2023-05-16T22:31:23.601Z,6.60
2023-05-16T22:33:52.740Z,7.22
2023-05-16T22:36:21.803Z,7.20
2023-05-16T22:38:51.292Z,7.28
2023-05-16T22:41:20.332Z,6.40
2023-05-16T22:43:49.400Z,6.70
2023-05-16T22:46:18.638Z,7.32
2023-05-16T22:48:49.355Z,6.80
2023-05-16T22:51:18.465Z,5.50
2023-05-16T22:53:47.497Z,5.90
2023-05-16T22:56:16.476Z,5.82
2023-05-16T22:58:45.575Z,6.50
2023-05-16T23:01:14.632Z,6.30
2023-05-16T23:03:43.914Z,6.15
2023-05-16T23:06:14.724Z,6.80
2023-05-16T23:08:43.837Z,5.60
2023-05-16T23:11:12.975Z,6.00
2023-05-16T23:13:42.001Z,5.68
2023-05-16T23:16:11.034Z,5.63
2023-05-16T23:18:40.325Z,4.97
2023-05-16T23:21:09.506Z,5.70
2023-05-16T23:23:40.229Z,5.03
2023-05-16T23:26:09.336Z,5.10
2023-05-16T23:28:38.433Z,5.03
2023-05-16T23:31:07.511Z,5.53
2023-05-16T23:33:36.703Z,5.07
2023-05-16T23:36:06.650Z,5.28
2023-05-16T23:38:35.682Z,4.90
2023-05-16T23:41:06.424Z,4.82
2023-05-16T23:43:35.448Z,5.35
2023-05-16T23:46:04.568Z,5.72
2023-05-16T23:48:33.910Z,4.70
2023-05-16T23:51:05.430Z,5.43
2023-05-16T23:53:34.834Z,5.68
2023-05-16T23:56:05.740Z,5.30
2023-05-16T23:58:34.747Z,4.78
